Time;durP1;ratioP1;P1;durP2;ratioP2;P2;SDS_P1;SDS_P2;PMS_P1;PMS_P2;Temp;Humidity;BMP_temperature;BMP_pressure;BME280_temperature;BME280_humidity;BME280_pressure;Samples;Min_cycle;Max_cycle;Signal;HPM_P1;HPM_P2
2023/10/11 04:43:24;;;;;;;;;;;;;;;18.74;61.05;97406.56;4248428;27;10250;-60
2023/10/11 04:45:46;;;;;;;;;;;;;;;19.06;60.21;97407.06;4247294;27;5654;-61
2023/10/11 04:48:14;;;;;;;;;;;;;;;19.30;59.57;97407.91;4242995;27;5786;-61
2023/10/11 04:50:41;;;;;;;;;;;;;;;19.48;59.02;97406.97;4248799;27;7196;-61
2023/10/11 04:53:03;;;;;;;;;;;;;;;19.60;58.52;97409.66;4248917;27;6323;-61
2023/10/11 04:55:34;;;;;;;;;;;;;;;19.69;58.40;97417.09;4239317;27;5794;-61
2023/10/11 04:58:04;;;;;;;;;;;;;;;19.77;57.80;97419.41;4245030;27;5709;-61
2023/10/11 05:00:31;;;;;;;;;;;;;;;19.84;57.56;97423.84;4241292;27;5622;-61
2023/10/11 05:02:58;;;;;;;;;;;;;;;19.89;57.27;97422.06;4243525;27;5650;-60
2023/10/11 05:05:21;;;;;;;;;;;;;;;19.93;56.93;97422.41;4247997;27;5755;-61
2023/10/11 05:07:46;;;;;;;;;;;;;;;19.96;57.04;97419.28;4245612;27;5826;-60
2023/10/11 05:10:29;;;;;;;;;;;;;;;19.99;56.47;97426.84;4243806;27;5729;-61
2023/10/11 05:12:58;;;;;;;;;;;;;;;20.02;56.34;97418.31;4248403;27;5649;-60
2023/10/11 05:15:19;;;;;;;;;;;;;;;20.03;56.17;97415.38;4248343;27;5673;-61
2023/10/11 05:17:49;;;;;;;;;;;;;;;20.05;55.99;97415.16;4246872;27;5285;-61
2023/10/11 05:22:52;;;;;;;;;;;;;;;20.09;55.50;97418.19;4237611;27;5622;-60
2023/10/11 05:25:37;;;;;;;;;;;;;;;20.09;55.63;97416.31;4238300;27;5949;-60
2023/10/11 05:28:07;;;;;;;;;;;;;;;20.10;55.13;97417.94;4243796;27;5622;-62
2023/10/11 05:30:29;;;;;;;;;;;;;;;20.11;55.01;97414.19;4246397;27;5630;-60
2023/10/11 05:32:54;;;;;;;;;;;;;;;20.11;54.88;97416.88;4233612;27;5901;-62
2023/10/11 05:35:53;;;;;;;;;;;;;;;20.12;54.80;97417.69;4235626;27;5913;-61
2023/10/11 05:51:26;;;;;;;;;;;;;;;20.14;54.04;97419.09;4235850;28;5623;-62
2023/10/11 05:53:49;;;;;;;;;;;;;;;20.15;54.36;97423.38;4236794;28;5705;-61
2023/10/11 05:56:20;;;;;;;;;;;;;;;20.16;53.80;97421.53;4236505;28;5665;-61
2023/10/11 05:58:42;;;;;;;;;;;;;;;20.17;53.66;97433.91;4236265;28;5634;-61
2023/10/11 06:01:10;;;;;;;;;;;;;;;20.17;53.28;97434.72;4236618;28;5629;-61
2023/10/11 06:03:35;;;;;;;;;;;;;;;20.18;53.53;97435.53;4236471;28;5665;-61
2023/10/11 06:06:08;;;;;;;;;;;;;;;20.16;53.48;97445.69;4236464;28;5638;-62
2023/10/11 06:08:31;;;;;;;;;;;;;;;20.16;53.33;97435.78;4219413;28;5656;-62
2023/10/11 06:10:56;;;;;;;;;;;;;;;20.16;53.25;97435.78;4232383;28;5646;-62
2023/10/11 06:13:18;;;;;;;;;;;;;;;20.16;53.17;97443.84;4228106;28;5637;-63
2023/10/11 06:15:41;;;;;;;;;;;;;;;20.16;53.09;97434.94;4236147;28;5701;-62
2023/10/11 06:18:05;;;;;;;;;;;;;;;20.15;52.88;97442.19;4235817;28;5642;-62
2023/10/11 06:20:27;;;;;;;;;;;;;;;20.17;52.76;97450.03;4229018;28;5637;-62
2023/10/11 06:22:50;;;;;;;;;;;;;;;20.16;52.44;97445.69;4235787;28;5796;-62
2023/10/11 06:25:13;;;;;;;;;;;;;;;20.15;52.49;97442.19;4236029;28;5745;-62
2023/10/11 06:30:17;;;;;;;;;;;;;;;20.15;52.54;97447.56;4235484;28;5737;-62
2023/10/11 06:32:37;;;;;;;;;;;;;;;20.16;52.42;97434.94;4235520;28;5638;-63
2023/10/11 06:34:59;;;;;;;;;;;;;;;20.18;52.54;97439.03;4235751;28;5634;-62
2023/10/11 06:37:24;;;;;;;;;;;;;;;20.18;52.50;97431.00;4227922;28;5673;-62
2023/10/11 06:40:09;;;;;;;;;;;;;;;20.20;52.47;97436.94;4235427;28;5724;-62
2023/10/11 06:42:31;;;;;;;;;;;;;;;20.21;52.48;97440.44;4228519;28;5639;-62
2023/10/11 06:44:57;;;;;;;;;;;;;;;20.21;52.52;97440.44;4232362;28;5669;-62
2023/10/11 06:47:21;;;;;;;;;;;;;;;20.24;52.53;97445.31;4227281;28;5690;-62
2023/10/11 06:49:47;;;;;;;;;;;;;;;20.25;52.37;97441.56;4235373;28;5801;-61
2023/10/11 06:52:11;;;;;;;;;;;;;;;20.28;52.57;97443.81;4233860;28;5633;-61
2023/10/11 06:54:32;;;;;;;;;;;;;;;20.29;52.59;97443.56;4234290;28;5841;-62
2023/10/11 06:56:55;;;;;;;;;;;;;;;20.31;52.87;97446.00;4231749;28;5646;-62
2023/10/11 06:59:19;;;;;;;;;;;;;;;20.31;53.15;97441.44;4234417;28;5626;-62
2023/10/11 07:01:41;;;;;;;;;;;;;;;20.35;53.46;97439.09;4229803;28;5630;-62
2023/10/11 07:04:03;;;;;;;;;;;;;;;20.38;53.82;97451.22;4234228;28;5642;-60
2023/10/11 07:06:25;;;;;;;;;;;;;;;20.38;54.12;97445.84;4218895;28;5670;-62
2023/10/11 07:08:50;;;;;;;;;;;;;;;20.40;54.18;97455.31;4224929;28;5687;-62
2023/10/11 07:11:16;;;;;;;;;;;;;;;20.41;54.13;97456.13;4228581;28;5641;-62
2023/10/11 07:16:19;;;;;;;;;;;;;;;20.44;54.84;97455.66;4235371;28;5717;-62
2023/10/11 07:18:43;;;;;;;;;;;;;;;20.47;55.08;97444.44;4221363;28;5859;-62
2023/10/11 07:21:07;;;;;;;;;;;;;;;20.48;54.98;97446.06;4235609;28;5631;-62
2023/10/11 07:23:45;;;;;;;;;;;;;;;20.48;55.07;97454.94;4219567;28;5648;-61
2023/10/11 07:29:03;;;;;;;;;;;;;;;20.51;55.01;97456.34;4216320;28;5687;-61
2023/10/11 07:31:31;;;;;;;;;;;;;;;20.53;55.34;97454.25;4216015;28;5105;-61
2023/10/11 07:33:55;;;;;;;;;;;;;;;20.56;55.56;97459.13;4216080;28;5105;-61
2023/10/11 07:36:19;;;;;;;;;;;;;;;20.58;55.44;97452.44;4216463;28;5628;-61
2023/10/11 07:38:43;;;;;;;;;;;;;;;20.61;55.56;97467.25;4216161;28;5803;-61
2023/10/11 07:41:05;;;;;;;;;;;;;;;20.62;55.66;97459.00;4216459;28;5698;-61
2023/10/11 07:43:32;;;;;;;;;;;;;;;20.64;55.83;97467.63;4200589;28;5654;-60
2023/10/11 07:45:56;;;;;;;;;;;;;;;20.66;55.45;97464.69;4216241;28;5643;-62
2023/10/11 07:48:17;;;;;;;;;;;;;;;20.68;55.95;97464.44;4199067;28;5630;-62
2023/10/11 07:50:39;;;;;;;;;;;;;;;20.70;55.65;97465.81;4216105;28;5636;-61
2023/10/11 07:53:01;;;;;;;;;;;;;;;20.72;56.02;97465.56;4215966;28;5857;-61
2023/10/11 07:55:26;;;;;;;;;;;;;;;20.73;56.19;97464.53;4216003;28;5635;-61
2023/10/11 07:57:47;;;;;;;;;;;;;;;20.74;55.77;97464.31;4215868;28;5731;-61
2023/10/11 08:00:17;;;;;;;;;;;;;;;20.76;56.23;97462.19;4226955;28;5741;-61
2023/10/11 08:02:42;;;;;;;;;;;;;;;20.79;56.13;97463.56;4234296;28;5642;-61
2023/10/11 08:05:05;;;;;;;;;;;;;;;20.80;56.21;97465.19;4234973;28;5638;-61
2023/10/11 08:07:27;;;;;;;;;;;;;;;20.82;56.05;97465.75;4217580;28;5643;-61
2023/10/11 08:09:52;;;;;;;;;;;;;;;20.82;55.93;97461.19;4217661;28;5644;-62
2023/10/11 08:12:15;;;;;;;;;;;;;;;20.83;56.27;97462.81;4225574;28;5634;-62
2023/10/11 08:14:40;;;;;;;;;;;;;;;20.84;55.89;97464.47;4217865;28;5667;-63
2023/10/11 08:17:10;;;;;;;;;;;;;;;20.85;56.23;97466.09;4223723;28;5642;-62
2023/10/11 08:19:33;;;;;;;;;;;;;;;20.86;56.45;97462.38;4217438;28;5714;-62
2023/10/11 08:21:58;;;;;;;;;;;;;;;20.86;56.14;97467.75;4222804;28;5662;-62
2023/10/11 08:24:24;;;;;;;;;;;;;;;20.87;56.25;97461.31;4217435;28;6909;-61
2023/10/11 08:26:47;;;;;;;;;;;;;;;20.88;56.04;97465.63;4230083;28;5630;-62
2023/10/11 08:29:16;;;;;;;;;;;;;;;20.89;56.16;97463.75;4234368;28;5657;-63
2023/10/11 08:31:39;;;;;;;;;;;;;;;20.90;56.46;97463.50;4220028;28;6338;-62
2023/10/11 08:34:01;;;;;;;;;;;;;;;20.92;56.14;97465.94;4234299;28;5634;-62
2023/10/11 08:36:29;;;;;;;;;;;;;;;20.91;56.56;97462.44;4234110;28;5646;-62
2023/10/11 08:38:51;;;;;;;;;;;;;;;20.91;56.53;97465.13;4234268;28;5705;-62
2023/10/11 08:41:15;;;;;;;;;;;;;;;20.91;56.42;97467.81;4234398;28;5796;-62
2023/10/11 08:43:37;;;;;;;;;;;;;;;20.92;56.25;97466.75;4234087;28;5642;-62
2023/10/11 08:46:05;;;;;;;;;;;;;;;20.94;56.47;97467.31;4234188;28;5782;-61
2023/10/11 08:48:28;;;;;;;;;;;;;;;20.97;56.87;97467.91;4234080;28;5717;-62
2023/10/11 08:50:54;;;;;;;;;;;;;;;20.97;56.67;97467.91;4234323;28;5638;-62
2023/10/11 08:53:20;;;;;;;;;;;;;;;20.98;57.16;97461.47;4234265;28;5637;-64
2023/10/11 08:55:42;;;;;;;;;;;;;;;21.00;56.67;97465.56;4229298;28;5650;-62
2023/10/11 08:58:05;;;;;;;;;;;;;;;21.01;56.96;97466.34;4233802;28;5638;-62
2023/10/11 09:00:31;;;;;;;;;;;;;;;21.03;56.81;97469.63;4234342;28;5634;-62
2023/10/11 09:02:53;;;;;;;;;;;;;;;21.04;57.34;97465.88;4233654;28;5630;-60
2023/10/11 09:05:28;;;;;;;;;;;;;;;21.05;56.95;97468.31;4234183;28;5658;-63
2023/10/11 09:07:51;;;;;;;;;;;;;;;21.07;57.46;97458.16;4217144;28;5735;-64
2023/10/11 09:10:27;;;;;;;;;;;;;;;21.06;56.96;97453.81;4217478;28;5738;-62
2023/10/11 09:12:49;;;;;;;;;;;;;;;21.06;57.51;97458.38;4217014;28;5663;-62
2023/10/11 09:15:14;;;;;;;;;;;;;;;21.07;57.02;97457.34;4217156;28;5691;-63
2023/10/11 09:17:39;;;;;;;;;;;;;;;21.09;57.13;97452.53;4217045;28;5659;-62
2023/10/11 09:20:01;;;;;;;;;;;;;;;21.10;57.43;97456.84;4234964;28;5657;-62
2023/10/11 09:22:23;;;;;;;;;;;;;;;21.11;57.56;97458.47;4237200;28;5665;-62
2023/10/11 09:24:47;;;;;;;;;;;;;;;21.11;57.46;97453.09;4236929;28;5744;-62
2023/10/11 09:27:18;;;;;;;;;;;;;;;21.12;57.59;97458.22;4237313;28;5649;-62
2023/10/11 09:29:42;;;;;;;;;;;;;;;21.14;57.63;97449.91;4237091;28;5650;-62
2023/10/11 09:32:05;;;;;;;;;;;;;;;21.16;57.62;97448.59;4236813;28;5638;-63
2023/10/11 09:34:29;;;;;;;;;;;;;;;21.17;57.54;97454.78;4236805;28;5642;-63
2023/10/11 09:36:56;;;;;;;;;;;;;;;21.18;57.23;97451.06;4236841;28;5642;-63
2023/10/11 09:39:18;;;;;;;;;;;;;;;21.20;57.51;97451.63;4237122;28;5642;-62
2023/10/11 09:41:41;;;;;;;;;;;;;;;21.21;57.51;97455.94;4236408;28;5895;-62
2023/10/11 09:44:10;;;;;;;;;;;;;;;21.23;57.47;97461.88;4236818;28;5794;-62
2023/10/11 09:46:34;;;;;;;;;;;;;;;21.23;57.52;97460.00;4223174;28;5642;-63
2023/10/11 09:48:56;;;;;;;;;;;;;;;21.22;57.13;97447.63;4224522;28;5137;-62
2023/10/11 09:51:18;;;;;;;;;;;;;;;21.21;56.57;97451.38;4234170;28;5797;-62
2023/10/11 09:53:50;;;;;;;;;;;;;;;21.23;56.67;97446.56;4233058;28;5638;-62
2023/10/11 09:56:30;;;;;;;;;;;;;;;21.25;56.23;97446.31;4231707;28;5637;-62
2023/10/11 09:59:05;;;;;;;;;;;;;;;21.28;55.86;97451.22;4231693;28;6347;-62
2023/10/11 10:01:38;;;;;;;;;;;;;;;21.28;55.91;97450.41;4235265;28;5638;-62
2023/10/11 10:04:06;;;;;;;;;;;;;;;21.29;55.73;97457.41;4233349;28;5714;-62
2023/10/11 10:06:27;;;;;;;;;;;;;;;21.29;55.40;97454.72;4228900;28;5638;-62
2023/10/11 10:09:22;;;;;;;;;;;;;;;21.31;54.89;97456.16;4228059;28;5749;-63
2023/10/11 10:12:21;;;;;;;;;;;;;;;21.33;54.94;97461.28;4225669;28;5713;-62
2023/10/11 10:14:45;;;;;;;;;;;;;;;21.37;54.77;97460.53;4227909;28;5663;-62
2023/10/11 10:17:13;;;;;;;;;;;;;;;21.37;54.54;97459.72;4224131;28;5843;-62
2023/10/11 10:19:39;;;;;;;;;;;;;;;21.38;54.39;97459.47;4226363;28;5657;-62
2023/10/11 10:22:11;;;;;;;;;;;;;;;21.40;54.65;97460.03;4221566;28;5655;-63
2023/10/11 10:24:36;;;;;;;;;;;;;;;21.39;54.30;97452.22;4221812;28;5810;-62
2023/10/11 10:26:58;;;;;;;;;;;;;;;21.42;53.96;97454.44;4225184;28;5780;-62
2023/10/11 10:29:19;;;;;;;;;;;;;;;21.40;53.94;97451.13;4225341;28;5756;-63
2023/10/11 10:32:10;;;;;;;;;;;;;;;21.42;54.11;97444.47;4224548;28;5634;-62
2023/10/11 10:34:30;;;;;;;;;;;;;;;21.45;54.07;97446.66;4232447;28;5750;-62
2023/10/11 10:36:53;;;;;;;;;;;;;;;21.47;54.37;97441.84;4233290;28;5744;-65
2023/10/11 10:42:12;;;;;;;;;;;;;;;21.49;54.05;97439.72;4235715;27;5630;-65
2023/10/11 10:44:44;;;;;;;;;;;;;;;21.51;54.05;97428.72;4235696;28;5163;-65
2023/10/11 10:47:06;;;;;;;;;;;;;;;21.54;54.46;97440.88;4233842;28;5809;-64
2023/10/11 10:49:41;;;;;;;;;;;;;;;21.56;54.44;97430.69;4235226;28;5634;-64
2023/10/11 10:52:15;;;;;;;;;;;;;;;21.58;54.40;97423.16;4229255;28;5969;-63
2023/10/11 10:54:37;;;;;;;;;;;;;;;21.59;54.61;97424.78;4232567;28;5737;-63
2023/10/11 10:56:59;;;;;;;;;;;;;;;21.61;54.60;97422.66;4235571;28;6335;-63
2023/10/11 10:59:21;;;;;;;;;;;;;;;21.63;54.72;97413.31;4218669;28;5651;-63
2023/10/11 11:01:44;;;;;;;;;;;;;;;21.64;54.23;97409.56;4218540;28;5770;-63
2023/10/11 11:04:07;;;;;;;;;;;;;;;21.67;54.64;97405.53;4218371;28;5671;-65
2023/10/11 11:06:39;;;;;;;;;;;;;;;21.67;54.40;97403.66;4228664;28;5195;-64
2023/10/11 11:09:00;;;;;;;;;;;;;;;21.69;54.73;97398.84;4235428;28;5665;-63
2023/10/11 11:11:26;;;;;;;;;;;;;;;21.71;54.39;97406.66;4235500;28;5635;-63
2023/10/11 11:13:48;;;;;;;;;;;;;;;21.72;54.59;97397.53;4235241;28;5132;-63
2023/10/11 11:16:16;;;;;;;;;;;;;;;21.73;54.86;97397.28;4235510;28;5638;-63
2023/10/11 11:18:37;;;;;;;;;;;;;;;21.75;54.70;97394.34;4218134;28;5659;-63
2023/10/11 11:21:17;;;;;;;;;;;;;;;21.76;54.23;97383.34;4232650;28;5650;-63
2023/10/11 11:23:42;;;;;;;;;;;;;;;21.78;54.50;97385.78;4229635;28;5654;-62
2023/10/11 11:26:04;;;;;;;;;;;;;;;21.79;53.95;97376.63;4234924;28;5641;-62
2023/10/11 11:28:27;;;;;;;;;;;;;;;21.79;54.34;97384.72;4234988;28;5622;-63
2023/10/11 11:31:09;;;;;;;;;;;;;;;21.80;54.01;97384.44;4235047;28;6359;-63
2023/10/11 11:33:34;;;;;;;;;;;;;;;21.82;53.49;97376.13;4234767;28;5693;-63
2023/10/11 11:35:56;;;;;;;;;;;;;;;21.82;53.38;97364.53;4235295;28;5698;-62
2023/10/11 11:38:20;;;;;;;;;;;;;;;21.83;53.52;97366.97;4234964;28;5646;-63
2023/10/11 11:40:47;;;;;;;;;;;;;;;21.86;53.14;97366.50;4234737;28;7684;-63
2023/10/11 11:43:10;;;;;;;;;;;;;;;21.89;53.19;97366.00;4243625;27;5613;-63
2023/10/11 11:45:35;;;;;;;;;;;;;;;21.88;52.65;97361.69;4228446;27;5643;-63
2023/10/11 11:47:56;;;;;;;;;;;;;;;21.91;52.54;97361.16;4233934;27;5650;-65
2023/10/11 11:50:20;;;;;;;;;;;;;;;21.92;52.78;97357.41;4231241;27;5628;-63
2023/10/11 11:52:42;;;;;;;;;;;;;;;21.92;52.44;97365.47;4243935;27;5658;-63
2023/10/11 11:55:08;;;;;;;;;;;;;;;21.93;51.99;97358.22;4242810;27;5725;-63
2023/10/11 11:57:30;;;;;;;;;;;;;;;21.95;51.70;97354.19;4227741;28;5626;-63
2023/10/11 11:59:53;;;;;;;;;;;;;;;21.94;51.42;97344.50;4246076;27;5613;-63
2023/10/11 12:02:16;;;;;;;;;;;;;;;21.96;51.33;97338.88;4234881;27;5754;-62
2023/10/11 12:04:44;;;;;;;;;;;;;;;21.96;51.12;97345.06;4234264;28;5637;-62
2023/10/11 12:07:05;;;;;;;;;;;;;;;21.97;50.69;97338.63;4235099;28;5652;-63
2023/10/11 12:09:32;;;;;;;;;;;;;;;21.98;51.00;97337.56;4227584;28;5642;-63
2023/10/11 12:12:12;;;;;;;;;;;;;;;22.03;50.74;97334.91;4234750;28;5822;-63
2023/10/11 12:14:38;;;;;;;;;;;;;;;22.06;50.58;97347.09;4234522;28;5841;-62
2023/10/11 12:17:00;;;;;;;;;;;;;;;22.07;51.05;97335.25;4234704;28;5645;-62
2023/10/11 12:19:22;;;;;;;;;;;;;;;22.07;50.61;97327.16;4234222;28;5728;-63
2023/10/11 12:21:44;;;;;;;;;;;;;;;22.07;50.48;97327.97;4234395;28;5642;-63
2023/10/11 12:24:10;;;;;;;;;;;;;;;22.07;50.68;97325.28;4234421;28;5637;-63
2023/10/11 12:26:53;;;;;;;;;;;;;;;22.10;50.46;97323.19;4234411;28;5646;-63
2023/10/11 12:29:14;;;;;;;;;;;;;;;22.10;50.51;97324.00;4232823;28;5631;-63
2023/10/11 12:31:38;;;;;;;;;;;;;;;22.10;50.90;97318.59;4224302;28;5694;-63
2023/10/11 12:34:00;;;;;;;;;;;;;;;22.10;50.78;97323.19;4231558;28;5667;-63
2023/10/11 12:36:22;;;;;;;;;;;;;;;22.08;50.26;97316.19;4233989;28;5597;-63
2023/10/11 12:38:44;;;;;;;;;;;;;;;22.11;50.64;97314.03;4234093;28;6331;-62
2023/10/11 12:41:07;;;;;;;;;;;;;;;22.12;50.60;97310.28;4235059;27;5774;-62
2023/10/11 12:43:29;;;;;;;;;;;;;;;22.13;50.08;97298.44;4233857;28;5649;-62
2023/10/11 12:45:53;;;;;;;;;;;;;;;22.14;50.52;97298.19;4234293;28;5635;-61
2023/10/11 12:48:16;;;;;;;;;;;;;;;22.14;50.20;97292.78;4234119;28;5850;-62
2023/10/11 12:50:37;;;;;;;;;;;;;;;22.18;50.45;97287.69;4227963;28;7847;-62
2023/10/11 12:52:59;;;;;;;;;;;;;;;22.18;50.25;97283.13;4234182;28;6343;-62
2023/10/11 12:55:21;;;;;;;;;;;;;;;22.19;50.05;97292.81;4231889;28;5662;-62
2023/10/11 12:57:43;;;;;;;;;;;;;;;22.18;50.29;97279.63;4237418;27;5641;-63
2023/10/11 13:00:15;;;;;;;;;;;;;;;22.20;49.72;97280.16;4237502;28;5634;-63
2023/10/11 13:02:37;;;;;;;;;;;;;;;22.22;49.71;97272.69;4236820;28;5733;-63
2023/10/11 13:05:00;;;;;;;;;;;;;;;22.20;50.07;97269.41;4236594;28;5642;-63
2023/10/11 13:07:26;;;;;;;;;;;;;;;22.22;49.65;97261.91;4232303;28;5733;-63
2023/10/11 13:09:48;;;;;;;;;;;;;;;22.23;49.25;97261.66;4227903;27;5846;-66
2023/10/11 13:12:17;;;;;;;;;;;;;;;22.26;49.21;97258.44;4235781;28;5638;-65
2023/10/11 13:14:41;;;;;;;;;;;;;;;22.26;49.42;97257.63;4230118;27;5592;-64
2023/10/11 13:17:07;;;;;;;;;;;;;;;22.29;48.71;97257.09;4230234;28;5630;-65
2023/10/11 13:19:30;;;;;;;;;;;;;;;22.30;48.78;97259.53;4229618;28;5635;-65
2023/10/11 13:21:54;;;;;;;;;;;;;;;22.31;48.61;97254.97;4236738;28;5741;-64
2023/10/11 13:24:21;;;;;;;;;;;;;;;22.32;48.90;97249.34;4236403;28;5637;-65
2023/10/11 13:26:44;;;;;;;;;;;;;;;22.31;48.82;97245.03;4231185;28;5762;-65
2023/10/11 13:29:06;;;;;;;;;;;;;;;22.31;48.79;97242.34;4235900;28;5733;-66
2023/10/11 13:31:29;;;;;;;;;;;;;;;22.35;48.14;97248.00;4234607;27;5708;-65
2023/10/11 13:33:53;;;;;;;;;;;;;;;22.36;48.33;97246.94;4235405;28;5646;-64
2023/10/11 13:36:15;;;;;;;;;;;;;;;22.36;48.43;97244.25;4237202;28;5629;-64
2023/10/11 13:38:41;;;;;;;;;;;;;;;22.35;48.18;97248.00;4230531;28;5834;-64
2023/10/11 13:41:02;;;;;;;;;;;;;;;22.34;48.42;97243.69;4236554;28;5741;-64
2023/10/11 13:43:24;;;;;;;;;;;;;;;22.33;48.32;97239.38;4228324;28;5633;-63
2023/10/11 13:45:56;;;;;;;;;;;;;;;22.33;48.50;97248.28;4236197;28;5112;-66
2023/10/11 13:48:18;;;;;;;;;;;;;;;22.37;48.25;97243.16;4236560;27;5713;-64
2023/10/11 13:50:40;;;;;;;;;;;;;;;22.38;47.76;97239.41;4231148;28;5642;-67
2023/10/11 13:53:02;;;;;;;;;;;;;;;22.37;48.16;97232.41;4236233;28;5744;-67
2023/10/11 13:55:25;;;;;;;;;;;;;;;22.37;48.32;97238.59;4228915;28;5706;-66
2023/10/11 13:57:52;;;;;;;;;;;;;;;22.37;48.19;97227.00;4235994;28;5756;-66
2023/10/11 14:02:51;;;;;;;;;;;;;;;22.38;47.67;97217.84;4231995;28;5646;-65
2023/10/11 14:05:18;;;;;;;;;;;;;;;22.38;48.04;97224.06;4235044;27;5719;-65
2023/10/11 14:07:49;;;;;;;;;;;;;;;22.39;47.70;97222.16;4230326;28;5646;-65
2023/10/11 14:10:15;;;;;;;;;;;;;;;22.39;48.16;97219.47;4236150;28;5669;-65
2023/10/11 14:12:38;;;;;;;;;;;;;;;22.40;48.17;97213.00;4235487;28;5816;-65
2023/10/11 14:15:00;;;;;;;;;;;;;;;22.42;47.72;97213.56;4235846;28;5650;-65
2023/10/11 14:17:24;;;;;;;;;;;;;;;22.44;47.68;97211.44;4235068;28;5748;-65
2023/10/11 14:19:46;;;;;;;;;;;;;;;22.45;47.65;97210.38;4235723;28;5631;-65
2023/10/11 14:22:08;;;;;;;;;;;;;;;22.43;47.55;97199.06;4236096;28;7712;-66
2023/10/11 14:24:30;;;;;;;;;;;;;;;22.44;48.09;97195.28;4229382;28;5849;-65
2023/10/11 14:26:51;;;;;;;;;;;;;;;22.45;47.70;97191.53;4235787;28;5666;-66
2023/10/11 14:29:15;;;;;;;;;;;;;;;22.44;47.88;97189.91;4229888;27;5824;-64
2023/10/11 14:31:37;;;;;;;;;;;;;;;22.46;48.06;97197.72;4230091;27;5789;-66
2023/10/11 14:34:00;;;;;;;;;;;;;;;22.48;48.08;97195.56;4231302;28;5697;-65
2023/10/11 14:36:25;;;;;;;;;;;;;;;22.47;48.25;97192.06;4230756;28;5719;-63
2023/10/11 14:38:47;;;;;;;;;;;;;;;22.50;48.18;97199.63;4234691;27;5649;-67
2023/10/11 14:41:10;;;;;;;;;;;;;;;22.50;48.12;97188.03;4236110;27;5924;-66
2023/10/11 14:43:34;;;;;;;;;;;;;;;22.52;47.96;97186.69;4226581;28;5741;-67
2023/10/11 14:45:57;;;;;;;;;;;;;;;22.54;47.66;97187.28;4226790;28;5650;-66
2023/10/11 14:48:19;;;;;;;;;;;;;;;22.53;47.54;97187.50;4235166;28;5646;-66
2023/10/11 14:50:42;;;;;;;;;;;;;;;22.51;48.04;97182.38;4233200;28;5713;-67
2023/10/11 14:53:04;;;;;;;;;;;;;;;22.51;47.63;97179.69;4233797;28;5646;-68
2023/10/11 14:55:27;;;;;;;;;;;;;;;22.51;48.16;97176.19;4227502;28;5686;-67
2023/10/11 14:57:50;;;;;;;;;;;;;;;22.50;47.76;97170.00;4243818;27;5645;-61
2023/10/11 15:00:16;;;;;;;;;;;;;;;22.53;47.82;97171.34;4233877;27;5913;-62
2023/10/11 15:02:39;;;;;;;;;;;;;;;22.56;48.13;97173.53;4234498;28;5805;-63
2023/10/11 15:05:00;;;;;;;;;;;;;;;22.57;47.95;97162.50;4226027;28;5646;-63
2023/10/11 15:07:22;;;;;;;;;;;;;;;22.57;47.77;97172.47;4232802;28;5658;-66
2023/10/11 15:09:43;;;;;;;;;;;;;;;22.56;48.05;97160.88;4233889;28;5642;-63
2023/10/11 15:12:06;;;;;;;;;;;;;;;22.56;47.91;97166.25;4234673;28;6348;-62
2023/10/11 15:14:28;;;;;;;;;;;;;;;22.57;48.04;97170.56;4238671;27;5817;-67
2023/10/11 15:16:50;;;;;;;;;;;;;;;22.58;47.91;97168.69;4230007;28;5638;-63
2023/10/11 15:19:12;;;;;;;;;;;;;;;22.57;47.95;97167.88;4232030;28;5662;-67
2023/10/11 15:21:34;;;;;;;;;;;;;;;22.60;48.46;97169.25;4226518;28;5650;-67
2023/10/11 15:23:56;;;;;;;;;;;;;;;22.62;48.41;97161.69;4228386;28;5653;-68
2023/10/11 15:26:19;;;;;;;;;;;;;;;22.64;48.99;97165.75;4232587;28;5713;-68
2023/10/11 15:28:41;;;;;;;;;;;;;;;22.65;48.81;97172.78;4227847;28;5649;-66
2023/10/11 15:31:04;;;;;;;;;;;;;;;22.65;49.06;97170.09;4236847;27;5733;-65
2023/10/11 15:33:26;;;;;;;;;;;;;;;22.65;49.07;97174.66;4227284;28;5821;-64
2023/10/11 15:35:56;;;;;;;;;;;;;;;22.67;49.40;97169.84;4230313;28;5731;-67
2023/10/11 15:38:17;;;;;;;;;;;;;;;22.65;49.57;97167.41;4233991;28;5713;-67
2023/10/11 15:40:39;;;;;;;;;;;;;;;22.64;49.81;97160.38;4235366;28;5634;-67
2023/10/11 15:43:01;;;;;;;;;;;;;;;22.64;50.14;97167.63;4228082;28;5637;-66
2023/10/11 15:45:22;;;;;;;;;;;;;;;22.63;50.37;97161.44;4226720;28;5626;-66
2023/10/11 15:47:44;;;;;;;;;;;;;;;22.64;50.14;97163.06;4232445;27;5650;-66
2023/10/11 15:50:12;;;;;;;;;;;;;;;22.64;50.38;97160.38;4233049;28;5650;-67
2023/10/11 15:52:35;;;;;;;;;;;;;;;22.63;50.71;97158.75;4230923;28;6566;-60
2023/10/11 15:54:57;;;;;;;;;;;;;;;22.62;50.24;97169.78;4230323;28;5802;-60
2023/10/11 15:57:18;;;;;;;;;;;;;;;22.62;50.17;97165.22;4224081;28;5634;-61
2023/10/11 15:59:40;;;;;;;;;;;;;;;22.62;50.50;97169.78;4223303;28;5756;-62
2023/10/11 16:02:05;;;;;;;;;;;;;;;22.61;50.71;97173.56;4217327;27;6126;-62
2023/10/11 16:04:28;;;;;;;;;;;;;;;22.61;50.46;97176.25;4227061;27;5638;-61
2023/10/11 16:06:49;;;;;;;;;;;;;;;22.59;50.27;97170.31;4227026;27;5667;-61
2023/10/11 16:09:13;;;;;;;;;;;;;;;22.58;50.72;97182.16;4227205;27;5834;-61
2023/10/11 16:11:35;;;;;;;;;;;;;;;22.56;50.82;97177.03;4223141;27;5918;-61
2023/10/11 16:13:57;;;;;;;;;;;;;;;22.56;50.49;97177.03;4225523;27;5729;-60
2023/10/11 16:16:19;;;;;;;;;;;;;;;22.57;50.80;97175.16;4228157;28;5802;-61
2023/10/11 16:18:44;;;;;;;;;;;;;;;22.58;51.12;97171.38;4221699;28;5784;-61
2023/10/11 16:21:07;;;;;;;;;;;;;;;22.56;51.27;97165.47;4227463;27;5841;-61
2023/10/11 16:23:30;;;;;;;;;;;;;;;22.56;51.05;97171.66;4228803;28;5634;-61
2023/10/11 16:25:55;;;;;;;;;;;;;;;22.55;51.58;97170.03;4220985;28;5734;-61
2023/10/11 16:28:18;;;;;;;;;;;;;;;22.54;51.53;97173.81;4224935;28;6376;-61
2023/10/11 16:30:42;;;;;;;;;;;;;;;22.53;51.22;97176.72;4226433;27;5792;-61
2023/10/11 16:33:05;;;;;;;;;;;;;;;22.53;51.43;97171.34;4224539;28;5725;-61
2023/10/11 16:35:28;;;;;;;;;;;;;;;22.52;51.86;97175.09;4226126;27;5646;-61
2023/10/11 16:37:49;;;;;;;;;;;;;;;22.50;51.99;97172.69;4224984;28;6454;-62
2023/10/11 16:40:18;;;;;;;;;;;;;;;22.51;51.90;97173.50;4229495;27;5628;-61
2023/10/11 16:42:41;;;;;;;;;;;;;;;22.48;52.16;97174.03;4226355;27;5737;-61
2023/10/11 16:45:05;;;;;;;;;;;;;;;22.48;52.42;97164.06;4227192;27;6498;-62
2023/10/11 16:47:27;;;;;;;;;;;;;;;22.47;52.25;97170.50;4228726;27;5634;-61
2023/10/11 16:49:49;;;;;;;;;;;;;;;22.46;52.23;97179.66;4222960;27;5726;-61
2023/10/11 16:52:11;;;;;;;;;;;;;;;22.45;52.88;97175.34;4224189;27;5742;-61
2023/10/11 16:54:36;;;;;;;;;;;;;;;22.45;52.87;97179.94;4225305;28;6446;-61
2023/10/11 16:56:58;;;;;;;;;;;;;;;22.42;53.06;97178.53;4218853;27;5800;-62
2023/10/11 16:59:22;;;;;;;;;;;;;;;22.40;52.62;97178.00;4228050;27;5797;-62
2023/10/11 17:01:44;;;;;;;;;;;;;;;22.40;53.05;97183.38;4225235;27;5713;-61
2023/10/11 17:04:07;;;;;;;;;;;;;;;22.38;53.38;97180.16;4225901;28;5798;-62
2023/10/11 17:06:29;;;;;;;;;;;;;;;22.37;53.08;97183.91;4221004;27;5757;-61
2023/10/11 17:08:51;;;;;;;;;;;;;;;22.35;53.59;97186.06;4226121;28;5098;-61
2023/10/11 17:11:13;;;;;;;;;;;;;;;22.33;53.77;97186.31;4223380;27;5739;-61
2023/10/11 17:13:35;;;;;;;;;;;;;;;22.33;53.81;97193.59;4225111;27;5808;-61
2023/10/11 17:15:59;;;;;;;;;;;;;;;22.32;53.76;97197.34;4223931;27;5857;-61
2023/10/11 17:18:22;;;;;;;;;;;;;;;22.31;53.65;97196.53;4228437;27;5646;-61
2023/10/11 17:20:45;;;;;;;;;;;;;;;22.31;53.58;97201.09;4227982;27;5781;-61
2023/10/11 17:23:07;;;;;;;;;;;;;;;22.29;54.25;97197.84;4227442;27;5768;-61
2023/10/11 17:25:30;;;;;;;;;;;;;;;22.28;54.11;97199.72;4225814;28;7018;-61
2023/10/11 17:27:52;;;;;;;;;;;;;;;22.24;54.00;97201.31;4224557;28;5770;-62
2023/10/11 17:30:14;;;;;;;;;;;;;;;22.24;54.06;97212.09;4226736;27;5780;-61
2023/10/11 17:32:37;;;;;;;;;;;;;;;22.23;54.46;97206.97;4226832;28;5655;-62
2023/10/11 17:34:59;;;;;;;;;;;;;;;22.22;54.64;97216.13;4225566;28;6064;-62
2023/10/11 17:37:20;;;;;;;;;;;;;;;22.21;54.25;97217.19;4226992;28;5733;-61
2023/10/11 17:39:42;;;;;;;;;;;;;;;22.19;54.63;97212.03;4229369;28;5760;-61
2023/10/11 17:42:03;;;;;;;;;;;;;;;22.18;54.76;97220.38;4229226;27;5630;-64
2023/10/11 17:44:27;;;;;;;;;;;;;;;22.18;54.55;97221.19;4228995;27;6331;-63
2023/10/11 17:46:48;;;;;;;;;;;;;;;22.17;54.52;97222.25;4229465;27;5638;-65
2023/10/11 17:49:11;;;;;;;;;;;;;;;22.17;54.45;97221.44;4229891;27;5660;-63
2023/10/11 17:51:32;;;;;;;;;;;;;;;22.17;54.67;97227.66;4230385;28;5721;-63
2023/10/11 17:53:54;;;;;;;;;;;;;;;22.16;54.58;97222.53;4235754;28;5630;-62
2023/10/11 17:56:16;;;;;;;;;;;;;;;22.16;54.59;97227.91;4236449;28;5740;-61